createdAt,value
2022-12-26T00:02:46.801Z,20.4
2022-12-26T00:12:51.965Z,23.3
2022-12-26T00:17:57.470Z,22
2022-12-26T00:22:59.787Z,22.6
2022-12-26T00:28:04.122Z,23.7
2022-12-26T00:33:06.223Z,22
2022-12-26T00:38:08.330Z,22.5
2022-12-26T00:43:10.299Z,24.4
2022-12-26T00:48:12.674Z,24.1
2022-12-26T00:53:14.924Z,25.6
2022-12-26T00:58:17.048Z,23.9
2022-12-26T01:03:19.139Z,24.3
2022-12-26T01:08:24.721Z,43.3
2022-12-26T01:13:25.687Z,24
2022-12-26T01:18:28.262Z,23
2022-12-26T01:23:30.834Z,21.4
2022-12-26T01:28:33.388Z,22.3
2022-12-26T01:33:36.211Z,23.3
2022-12-26T01:38:39.061Z,21.5
2022-12-26T01:43:42.489Z,23.2
2022-12-26T01:48:44.516Z,19.6
2022-12-26T01:58:48.813Z,21.1
2022-12-26T02:03:50.973Z,20.7
2022-12-26T02:08:52.979Z,20.4
2022-12-26T02:13:54.908Z,19.1
2022-12-26T02:18:56.841Z,18.7
2022-12-26T02:23:59.513Z,18.7
2022-12-26T02:29:01.574Z,19.2
2022-12-26T02:34:03.605Z,19.3
2022-12-26T02:39:43.118Z,19.6
2022-12-26T02:44:08.655Z,20.7
2022-12-26T02:49:10.865Z,19.7
2022-12-26T02:54:12.909Z,18
2022-12-26T02:59:15.081Z,18
2022-12-26T03:04:17.345Z,21.6
2022-12-26T03:09:19.464Z,19.2
2022-12-26T03:14:21.476Z,17.8
2022-12-26T03:19:23.549Z,20.5
2022-12-26T03:24:25.966Z,18.7
2022-12-26T03:29:28.168Z,20.3
2022-12-26T03:34:30.364Z,20.2
2022-12-26T03:39:32.622Z,20.4
2022-12-26T03:44:34.584Z,35.3
2022-12-26T03:49:35.033Z,21.1
2022-12-26T03:54:37.137Z,21.3
2022-12-26T03:59:39.372Z,24
2022-12-26T04:04:41.735Z,22.2
2022-12-26T04:09:43.939Z,23.7
2022-12-26T04:14:45.964Z,22.9
2022-12-26T04:19:47.969Z,22.3
2022-12-26T04:24:50.619Z,22.1
2022-12-26T04:29:52.767Z,22.9
2022-12-26T04:34:55.161Z,21.8
2022-12-26T04:39:57.889Z,23.2
2022-12-26T04:44:59.998Z,22.8
2022-12-26T04:50:02.663Z,23.9
2022-12-26T04:55:04.936Z,22.6
2022-12-26T05:00:07.001Z,23.7
2022-12-26T05:05:09.127Z,24.6
2022-12-26T05:10:11.244Z,22.1
2022-12-26T05:15:13.752Z,23.7
2022-12-26T05:20:15.791Z,25
2022-12-26T05:25:18.442Z,26.7
2022-12-26T05:30:21.121Z,24.8
2022-12-26T05:35:23.330Z,25.3
2022-12-26T05:40:27.260Z,25.4
2022-12-26T05:45:32.467Z,28.9
2022-12-26T05:50:34.503Z,26.9
2022-12-26T05:55:36.689Z,28
2022-12-26T06:00:38.958Z,24.1
2022-12-26T06:05:41.181Z,27.4
2022-12-26T06:10:43.363Z,27.6
2022-12-26T06:15:47.467Z,29.9
2022-12-26T06:20:49.548Z,29.3
2022-12-26T06:25:51.989Z,27.1
2022-12-26T06:30:54.125Z,28.7
2022-12-26T06:35:56.121Z,30
2022-12-26T06:40:58.194Z,29
2022-12-26T06:46:01.428Z,30.5
2022-12-26T06:51:03.540Z,31
2022-12-26T06:56:05.678Z,28.7
2022-12-26T07:01:07.996Z,28.1
2022-12-26T07:06:11.158Z,24.4
2022-12-26T07:11:13.203Z,25.6
2022-12-26T07:16:15.371Z,23.8
2022-12-26T07:21:17.654Z,24.3
2022-12-26T07:26:20.046Z,23.8
2022-12-26T07:31:22.397Z,23
2022-12-26T07:36:28.911Z,21.8
2022-12-26T07:41:30.987Z,21.4
2022-12-26T07:46:33.077Z,18.9
2022-12-26T07:51:36.035Z,18
2022-12-26T07:56:38.618Z,17.1
2022-12-26T08:01:42.612Z,15.7
2022-12-26T08:06:46.156Z,15.7
2022-12-26T08:11:48.312Z,14.4
2022-12-26T08:16:53.290Z,14.5
2022-12-26T08:21:55.997Z,22.4
2022-12-26T08:26:56.977Z,13.8
2022-12-26T08:31:59.219Z,12.6
2022-12-26T08:37:01.824Z,14.8
2022-12-26T08:42:03.988Z,12.1
2022-12-26T08:47:08.624Z,10.3
2022-12-26T08:52:10.590Z,9.9
2022-12-26T08:57:13.476Z,10.9
2022-12-26T09:02:15.708Z,10.6
2022-12-26T09:07:19.163Z,10.5
2022-12-26T09:12:21.436Z,9.9
2022-12-26T09:17:23.772Z,9.7
2022-12-26T09:22:28.255Z,9.6
2022-12-26T09:27:26.674Z,8.9
2022-12-26T09:32:28.947Z,6.7
2022-12-26T09:37:31.488Z,7.1
2022-12-26T09:42:33.559Z,7.7
2022-12-26T09:47:35.739Z,13.6
2022-12-26T09:52:36.576Z,7.3
2022-12-26T09:57:39.111Z,7.7
2022-12-26T10:02:41.616Z,9
2022-12-26T10:07:44.513Z,8.4
2022-12-26T10:12:46.681Z,7.1
2022-12-26T10:17:50.006Z,6.2
2022-12-26T10:22:52.420Z,5.2
2022-12-26T10:27:54.608Z,5.7
2022-12-26T10:32:58.054Z,4.4
2022-12-26T10:38:00.517Z,4.9
2022-12-26T10:43:03.117Z,4.8
2022-12-26T10:48:05.255Z,6.3
2022-12-26T10:53:07.510Z,4.9
2022-12-26T10:58:09.441Z,5.5
2022-12-26T11:03:12.054Z,4.4
2022-12-26T11:08:15.715Z,4.8
2022-12-26T11:13:17.967Z,4.2
2022-12-26T11:18:20.449Z,4.1
2022-12-26T11:23:22.549Z,4.4
2022-12-26T11:28:24.900Z,4.9
2022-12-26T11:33:27.080Z,4.6
2022-12-26T11:38:29.361Z,5.9
2022-12-26T11:43:31.442Z,5.3
2022-12-26T11:48:33.583Z,6.2
2022-12-26T11:53:35.839Z,4.7
2022-12-26T11:58:37.939Z,6.7
2022-12-26T12:03:45.421Z,4.9
2022-12-26T12:08:42.035Z,6.3
2022-12-26T12:13:44.129Z,5.8
2022-12-26T12:18:46.837Z,5.4
2022-12-26T12:23:49.127Z,5.2
2022-12-26T12:28:51.953Z,6.1
2022-12-26T12:33:54.405Z,5.9
2022-12-26T12:38:57.392Z,7
2022-12-26T12:43:59.487Z,5.2
2022-12-26T12:49:02.631Z,6.2
2022-12-26T12:54:05.143Z,5.4
2022-12-26T12:59:07.134Z,5.2
2022-12-26T13:04:09.112Z,4.9
2022-12-26T13:09:11.191Z,6.7
2022-12-26T13:14:13.345Z,5.4
2022-12-26T13:19:15.352Z,5.4
2022-12-26T13:24:18.222Z,4.9
2022-12-26T13:29:20.636Z,5.4
2022-12-26T13:34:22.646Z,6.9
2022-12-26T13:39:24.757Z,6.5
2022-12-26T13:44:27.063Z,6.1
2022-12-26T13:49:29.046Z,6.4
2022-12-26T13:54:31.059Z,7
2022-12-26T13:59:33.220Z,7
2022-12-26T14:04:35.165Z,6.8
2022-12-26T14:09:37.345Z,6.3
2022-12-26T14:14:39.994Z,6.9
2022-12-26T14:19:42.721Z,7.9
2022-12-26T14:24:45.007Z,7.7
2022-12-26T14:29:47.423Z,8.3
2022-12-26T14:34:50.254Z,8.1
2022-12-26T14:39:52.823Z,8.1
2022-12-26T14:44:54.982Z,8.9
2022-12-26T14:49:57.052Z,8.4
2022-12-26T14:54:59.230Z,8.1
2022-12-26T15:00:03.561Z,8.8
2022-12-26T15:05:06.168Z,9.2
2022-12-26T15:10:08.150Z,10.6
2022-12-26T15:15:10.400Z,15.9
2022-12-26T15:20:12.549Z,14.6
2022-12-26T15:25:19.510Z,18.9
2022-12-26T15:30:23.040Z,12.9
2022-12-26T15:35:25.791Z,12
2022-12-26T15:40:30.756Z,14.4
2022-12-26T15:45:33.530Z,16.5
2022-12-26T15:50:38.933Z,15.4
2022-12-26T15:55:41.296Z,15
2022-12-26T16:00:44.239Z,13.3
2022-12-26T16:05:46.574Z,14.1
2022-12-26T16:10:52.658Z,15.2
2022-12-26T16:15:58.451Z,14
2022-12-26T16:21:01.301Z,13.1
2022-12-26T16:26:03.818Z,15.1
2022-12-26T16:31:06.261Z,14
2022-12-26T16:36:08.919Z,10.4
2022-12-26T16:41:11.394Z,16.8
2022-12-26T16:46:13.556Z,22.9
2022-12-26T16:51:16.764Z,12.8
2022-12-26T16:56:18.893Z,15.2
2022-12-26T17:01:21.085Z,17.7
2022-12-26T17:06:24.160Z,16.6
2022-12-26T17:11:26.728Z,15.5
2022-12-26T17:16:29.256Z,15.7
2022-12-26T17:21:32.042Z,16.6
2022-12-26T17:26:34.429Z,17
2022-12-26T17:31:36.839Z,15.8
2022-12-26T17:41:41.380Z,19.3
2022-12-26T17:46:43.906Z,18.6
2022-12-26T17:51:51.356Z,20.7
2022-12-26T17:56:53.160Z,19.1
2022-12-26T18:01:55.374Z,19.1
2022-12-26T18:06:58.176Z,17.8
2022-12-26T18:12:01.118Z,18.5
2022-12-26T18:17:03.250Z,18.5
2022-12-26T18:22:05.670Z,18
2022-12-26T18:27:10.539Z,20.2
2022-12-26T18:32:13.348Z,22
2022-12-26T18:37:15.999Z,25.7
2022-12-26T18:42:17.037Z,23.2
2022-12-26T18:47:19.181Z,23.7
2022-12-26T18:52:21.753Z,28.6
2022-12-26T18:57:24.083Z,26.2
2022-12-26T19:02:26.395Z,23.4
2022-12-26T19:07:28.607Z,21.4
2022-12-26T19:12:30.571Z,23.1
2022-12-26T19:17:33.240Z,18.5
2022-12-26T19:22:35.275Z,18.5
2022-12-26T19:27:37.402Z,18.4
2022-12-26T19:32:40.135Z,20.1
2022-12-26T19:37:43.293Z,17.6
2022-12-26T19:42:45.411Z,18
2022-12-26T19:47:47.744Z,19.2
2022-12-26T19:52:50.416Z,19.7
2022-12-26T19:57:52.846Z,18.3
2022-12-26T20:02:54.968Z,17.6
2022-12-26T20:07:57.327Z,16.5
2022-12-26T20:12:59.343Z,17.6
2022-12-26T20:18:01.559Z,15.8
2022-12-26T20:23:03.992Z,17.2
2022-12-26T20:28:05.999Z,14.6
2022-12-26T20:33:08.208Z,18.5
2022-12-26T20:38:10.566Z,17.4
2022-12-26T20:43:12.592Z,15.5
2022-12-26T20:48:14.613Z,13.7
2022-12-26T20:53:16.935Z,12.6
2022-12-26T20:58:25.120Z,13.8
2022-12-26T21:03:27.697Z,13.8
2022-12-26T21:08:30.198Z,14.2
2022-12-26T21:13:32.206Z,15.7
2022-12-26T21:18:34.410Z,15.4
2022-12-26T21:23:36.353Z,15.1
2022-12-26T21:28:38.369Z,13.9
2022-12-26T21:33:44.392Z,13.9
2022-12-26T21:38:47.087Z,15.1
2022-12-26T21:43:49.073Z,15.7
2022-12-26T21:48:51.135Z,16.3
2022-12-26T21:53:53.129Z,15.9
2022-12-26T21:58:55.077Z,18.6
2022-12-26T22:03:57.197Z,15.6
2022-12-26T22:08:59.233Z,14.1
2022-12-26T22:14:01.322Z,14.5
2022-12-26T22:19:03.389Z,12.2
2022-12-26T22:24:05.397Z,13.6
2022-12-26T22:29:07.564Z,11.7
2022-12-26T22:34:09.767Z,12.8
2022-12-26T22:39:11.723Z,12.1
2022-12-26T22:44:13.729Z,13.1
2022-12-26T22:49:15.702Z,10.7
2022-12-26T22:54:17.663Z,12.4
2022-12-26T22:59:41.486Z,13.8
2022-12-26T23:04:21.415Z,12.2
2022-12-26T23:09:25.666Z,10.7
2022-12-26T23:14:27.917Z,10.8
2022-12-26T23:19:29.994Z,10.2
2022-12-26T23:24:32.032Z,13.8
2022-12-26T23:29:34.124Z,9.9
2022-12-26T23:34:36.186Z,10
2022-12-26T23:39:38.451Z,10.8
2022-12-26T23:44:40.470Z,11.1
2022-12-26T23:49:42.463Z,10.1
2022-12-26T23:54:44.420Z,9.5
2022-12-26T23:59:46.587Z,8.6
